Marco Gutierrez

Olheiro - Atlas
10 Set 2028
Domingo
Processo

Personalidade

Adaptabilidade (7) Ambição (7) Controvérsia (1) Lealdade (7) Pressão (5) Profissionalismo (16) Espírito Esportivo (2) Temperamento (2)

Perfil

Estilo de Treinamento Democrático
Licença Nacional A
Determinação 13
Gestão de Pessoas 13
Motivação 5
Disciplina 10
Satisfação no Trabalho
100%
Fadiga
0%
Função Olheiro
Salário 59.2K p/s
Contrato 14.03.2029

Desempenho

Comportamento Bom
Eficácia do Treinamento
52%
Desenvolvimento do Jogador
20%
Prevenção de Lesões
35%
Implementação Tática
45%

Eventos Recentes

Participou de uma reunião de recrutamento agora
Participou de uma reunião de recrutamento 7d atrás
Recomendou um alvo de transferência 7d atrás
Participou de uma reunião de recrutamento 7d atrás
Participou de uma reunião de recrutamento 14d atrás
Recomendou um alvo de transferência 14d atrás
Participou de uma reunião de recrutamento 14d atrás
Participou de uma reunião de recrutamento 21d atrás

Monitorando agora

64
Jogador Clube Status Habilidade Confiança Observado Última observação Último voto
Giovanni Leoni Lincoln City Ativo 147 / 157 40% 3 20.06.2028 -
Konta Ismaily Ativo 87 / 93 40% 2 20.06.2028 -
Lucas Varaldo Morelia Ativo 127 / 110 58% 1 01.06.2028 Aprovar
Trey Nyoni Rotherham United Ativo 144 / 140 40% 1 01.06.2028 -
Felipe Varela Trujillanos Ativo 82 / 114 40% 1 01.06.2028 -
Bernardo Lima Porto Ativo 103 / 126 40% 1 29.05.2028 -
Andrea Cogoni Cosenza Ativo 107 / 126 40% 1 29.05.2028 -
Martim Cunha Porto Ativo 115 / 123 40% 4 28.05.2028 -
Josh Nichols Oldham Athletic Ativo 114 / 121 40% 2 28.05.2028 -
Buba Sangaré Elche Ativo 129 / 145 40% 2 27.05.2028 -
Riquelme Thompson-Jones Accrington Stanley Ativo 108 / 103 40% 4 26.05.2028 -
Daniel Banjaqui Benfica Ativo 131 / 126 40% 2 25.05.2028 -
Christos Mouzakitis Hull City Ativo 133 / 134 40% 3 24.05.2028 -
Jorthy Mokio ADO Den Haag Ativo 140 / 141 40% 3 24.05.2028 -
Honest Ahanor Atalanta Ativo 133 / 145 40% 5 22.05.2028 -
Simone Suppa Virtus Verona Ativo 94 / 83 40% 3 20.05.2028 -
Ayden Heaven Portsmouth Ativo 139 / 142 40% 3 15.05.2028 -
Tyler Fletcher Rotherham United Ativo 115 / 113 40% 1 14.05.2028 -
Celías Ingenthron Platense Ativo 126 / 128 40% 2 13.05.2028 -
Tobías Ramírez River Plate Ativo 136 / 123 40% 1 13.05.2028 -
Lucas Høgsberg RC Strasbourg Ativo 134 / 139 40% 6 04.05.2028 -
Héctor Fort Real Sociedad Ativo 141 / 153 40% 1 03.05.2028 -
Musa Danjuma Umraniyespor Ativo 93 / 110 40% 1 30.04.2028 -
Josh Acheampong Everton Ativo 142 / 143 40% 2 27.04.2028 -
Pape Diong Westerlo Ativo 118 / 136 40% 2 24.04.2028 -
Gustavo Albarracín Alavés Ativo 123 / 122 40% 1 16.04.2028 -
Edwin Cerrillo Club America Negociando 128 / 104 55% 1 17.01.2028 Observar
Marco Farfan Tigres Ativo 128 / 124 55% 1 01.01.2028 -
Uziel García Morelia Ativo 119 / 113 55% 1 01.06.2027 -
Eliás Montiel Borussia Dortmund Ativo 130 / 145 40% 2 31.05.2027 Mais informações
Riley Owen Stevenage Ativo 94 / 114 40% 1 30.05.2027 -
Caleb Yirenkyi Coventry City Ativo 125 / 127 40% 4 24.05.2027 -
Tiago Freitas Benfica Ativo 116 / 105 40% 2 22.05.2027 -
Kazunari Kita Real Sociedad Ativo 103 / 116 40% 2 20.05.2027 -
Charlie Gray Fleetwood Town Ativo 92 / 97 40% 1 20.05.2027 -
Tommaso Cecotti Carpi Ativo 96 / 103 40% 2 13.05.2027 -
Zane Albarus Shrewsbury Town Ativo 102 / 97 40% 2 13.05.2027 -
Sascha Britschgi AC Milan Ativo 131 / 121 40% 1 11.05.2027 -
Edwin Asamoah Berekum Chelsea Ativo 96 / 92 40% 1 05.05.2027 -
Victor Hernandez Santa Fe Ativo 114 / 138 40% 1 29.04.2027 -
Lucas Agazzi Villarreal Ativo 126 / 125 40% 1 25.04.2027 -
Henrique Silva Santa Clara Ativo 97 / 126 40% 2 19.04.2027 -
Jenson Jones Walsall Ativo 93 / 109 40% 3 16.04.2027 -
James Dornelly Peterborough United Ativo 96 / 115 40% 1 06.04.2027 -
Louis Leroux FC Nantes Ativo 126 / 137 40% 1 29.03.2027 -
Olivier Leroux Mouscron Ativo 95 / 101 40% 1 28.03.2027 -
Joaquin Seys Club Brugge Ativo 137 / 141 40% 1 15.03.2027 -
Rivaldo Mkhize Black Aces Ativo 83 / 76 40% 1 04.03.2027 -
Leandro Martins Benfica Ativo 97 / 101 40% 1 01.03.2027 -
Brooke Norton-Cuffy Hull City Ativo 145 / 149 40% 1 31.12.2026 -
Dara O'Shea Ipswich Town Ativo 147 / 129 40% 1 31.12.2026 Mais informações
Santiago González Tigre Ativo 111 / 116 40% 1 25.12.2026 -
Facundo Miño Deportivo Riestra Ativo 123 / 129 40% 1 25.12.2026 -
Toby Collyer West Bromwich Albion Ativo 117 / 123 40% 1 23.12.2026 -
Omar Campos Cruz Azul Ativo 134 / 120 40% 1 22.12.2026 -
Gastón Benedetti Estudiantes Ativo 134 / 146 40% 1 22.12.2026 Mais informações
Marco Pellegrino Boca Juniors Ativo 127 / 134 40% 1 19.12.2026 -
Pedro Ramírez Deportivo Riestra Ativo 132 / 101 40% 1 18.12.2026 -
Welington Southampton Ativo 118 / 140 40% 1 18.12.2026 -
Ramón Juárez Club America Ativo 142 / 139 40% 1 16.12.2026 -
Aarón Mejía Tijuana Ativo 122 / 114 40% 1 08.12.2026 -
Alejandro Gómez Tijuana Ativo 131 / 122 40% 1 08.12.2026 -
Víctor Machado Zorya Ativo 85 / 95 40% 1 06.10.2026 -
Youssoufa Moukoko FC Copenhagen Ativo 126 / 108 40% 1 06.10.2026 -